YOJ weather

High Level Airport
High Level, Alberta, Canada

Public forecast

Using degrees Celsius for public forecast. Weather courtesy of forecast.io.

METAR (pilot weather report)

Retrieved 2019/08/17 21:00 UTC (52 minutes ago):

CYOJ 172100Z VRB06G17KT 15SM BKN055 16/02 A2979 RMK CU6 SLP103 DENSITY ALT 1700FT

TAF (pilot weather forecast)

Retrieved 2019/08/17 19:42 UTC (2 hours ago):

TAF CYOJ 171838Z 1719/1807 VRB03KT P6SM FEW040 BECMG 1721/1723 01008KT RMK NXT FCST BY 180100Z